Time;durP1;ratioP1;P1;durP2;ratioP2;P2;SDS_P1;SDS_P2;PMS_P1;PMS_P2;Temp;Humidity;BMP_temperature;BMP_pressure;BME280_temperature;BME280_humidity;BME280_pressure;Samples;Min_cycle;Max_cycle;Signal;HPM_P1;HPM_P2
2021/11/20 00:02:36;;;;;;;16.80;8.88;;;8.80;96.00;;;;;;10093022;28;20483;-68
2021/11/20 00:07:27;;;;;;;22.98;10.63;;;8.70;96.10;;;;;;10097426;28;20025;-68
2021/11/20 00:12:24;;;;;;;16.80;9.00;;;8.70;96.10;;;;;;10095938;28;20102;-68
2021/11/20 00:17:15;;;;;;;18.70;8.40;;;8.70;96.20;;;;;;10095853;28;20052;-69
2021/11/20 00:22:24;;;;;;;17.67;9.07;;;8.80;96.10;;;;;;10096317;28;20060;-68
2021/11/20 00:27:25;;;;;;;18.15;8.38;;;8.80;96.10;;;;;;10096215;28;20033;-68
2021/11/20 00:32:21;;;;;;;18.23;8.88;;;8.80;96.20;;;;;;10091289;28;20086;-67
2021/11/20 00:37:13;;;;;;;14.93;9.20;;;8.80;96.20;;;;;;10094940;28;20383;-69
2021/11/20 00:42:06;;;;;;;14.98;8.48;;;8.80;96.10;;;;;;10094940;28;20040;-67
2021/11/20 00:46:56;;;;;;;18.00;9.02;;;8.90;96.10;;;;;;10094042;28;20036;-67
2021/11/20 00:51:49;;;;;;;16.92;7.90;;;8.80;96.20;;;;;;10094437;28;20052;-69
2021/11/20 00:56:41;;;;;;;14.98;8.55;;;8.90;96.20;;;;;;10097745;28;20037;-68
2021/11/20 01:01:37;;;;;;;16.58;9.27;;;8.90;96.00;;;;;;10093304;28;20025;-69
2021/11/20 01:06:28;;;;;;;15.93;7.88;;;8.90;96.10;;;;;;10092506;28;20053;-68
2021/11/20 01:11:32;;;;;;;19.08;9.05;;;8.90;96.20;;;;;;10093576;28;20041;-69
2021/11/20 01:16:24;;;;;;;18.63;9.55;;;8.90;96.00;;;;;;10092261;28;20112;-67
2021/11/20 01:21:15;;;;;;;18.83;8.93;;;8.80;96.10;;;;;;10077920;28;20078;-69
2021/11/20 01:26:07;;;;;;;22.40;9.02;;;8.90;96.20;;;;;;10093724;28;20281;-68
2021/11/20 01:30:58;;;;;;;20.60;8.75;;;8.90;96.10;;;;;;10088406;28;20140;-68
2021/11/20 01:35:49;;;;;;;17.52;8.43;;;9.00;96.10;;;;;;10092225;28;20028;-68
2021/11/20 01:40:43;;;;;;;18.55;10.27;;;9.00;96.10;;;;;;10093102;28;20066;-67
2021/11/20 01:45:46;;;;;;;17.67;8.88;;;9.00;96.00;;;;;;10091766;28;20029;-68
2021/11/20 01:50:40;;;;;;;17.33;8.65;;;8.90;96.20;;;;;;10051525;28;20033;-69
2021/11/20 01:55:41;;;;;;;19.13;8.93;;;8.80;96.20;;;;;;10088336;28;20067;-68
2021/11/20 02:00:54;;;;;;;16.58;8.52;;;8.80;96.30;;;;;;10092466;28;20037;-69
2021/11/20 02:06:07;;;;;;;17.48;8.23;;;8.80;96.40;;;;;;10089759;28;20526;-69
2021/11/20 02:11:22;;;;;;;17.30;7.80;;;8.70;96.30;;;;;;10077131;28;20099;-68
2021/11/20 02:16:29;;;;;;;13.77;6.43;;;8.80;96.20;;;;;;10084860;28;20036;-68
2021/11/20 02:21:41;;;;;;;14.38;7.03;;;8.70;96.40;;;;;;10089828;28;20387;-67
2021/11/20 02:26:32;;;;;;;23.15;7.63;;;8.70;96.30;;;;;;10092129;28;20300;-68
2021/11/20 02:31:23;;;;;;;14.60;7.60;;;8.60;96.30;;;;;;10089733;28;20041;-70
2021/11/20 02:36:20;;;;;;;18.45;8.35;;;8.70;96.40;;;;;;10057806;28;20466;-68
2021/11/20 02:41:15;;;;;;;15.68;7.43;;;8.70;96.20;;;;;;10080655;28;20091;-69
2021/11/20 02:46:07;;;;;;;17.55;8.50;;;8.60;96.20;;;;;;10068535;28;20094;-69
2021/11/20 02:51:02;;;;;;;16.00;7.97;;;8.60;96.30;;;;;;10088431;28;20064;-67
2021/11/20 02:55:53;;;;;;;18.03;7.70;;;8.60;96.30;;;;;;10068286;28;20449;-68
2021/11/20 03:00:46;;;;;;;16.65;8.43;;;8.60;96.30;;;;;;10098767;28;20047;-68
2021/11/20 03:05:37;;;;;;;16.80;7.75;;;8.60;96.30;;;;;;10100262;28;20032;-69
2021/11/20 03:10:28;;;;;;;19.98;8.15;;;8.50;96.30;;;;;;10083212;28;20052;-68
2021/11/20 03:15:19;;;;;;;20.50;8.05;;;8.50;96.40;;;;;;10094306;28;20388;-69
2021/11/20 03:20:12;;;;;;;12.18;6.38;;;8.50;96.30;;;;;;10090987;28;20033;-69
2021/11/20 03:25:04;;;;;;;11.15;6.07;;;8.40;96.30;;;;;;10088515;28;20037;-68
2021/11/20 03:29:55;;;;;;;13.88;5.13;;;8.40;96.40;;;;;;10085367;28;20047;-69
2021/11/20 03:34:46;;;;;;;11.93;5.72;;;8.40;96.30;;;;;;10100522;28;20043;-69
2021/11/20 03:39:37;;;;;;;11.52;5.57;;;8.40;96.30;;;;;;10098570;28;20027;-67
2021/11/20 03:44:28;;;;;;;10.18;5.40;;;8.50;96.20;;;;;;10098951;28;20132;-67
2021/11/20 03:49:19;;;;;;;7.78;5.20;;;8.50;96.20;;;;;;10097351;28;20121;-67
2021/11/20 03:54:11;;;;;;;9.20;4.78;;;8.50;96.30;;;;;;10095817;28;20076;-68
2021/11/20 03:59:03;;;;;;;9.68;5.30;;;8.50;96.40;;;;;;10095160;28;20143;-68
2021/11/20 04:03:54;;;;;;;10.05;5.50;;;8.40;96.10;;;;;;10097983;28;20056;-68
2021/11/20 04:08:47;;;;;;;7.13;4.45;;;8.40;96.10;;;;;;10096673;28;20083;-67
2021/11/20 04:13:40;;;;;;;7.85;4.25;;;8.50;96.10;;;;;;10077550;28;20029;-69
2021/11/20 04:18:31;;;;;;;7.28;4.60;;;8.40;96.20;;;;;;10097429;28;20060;-67
2021/11/20 04:23:21;;;;;;;8.07;3.72;;;8.40;96.20;;;;;;10097396;28;20046;-67
2021/11/20 04:28:12;;;;;;;7.97;4.03;;;8.40;96.20;;;;;;10097795;28;20419;-68
2021/11/20 04:33:03;;;;;;;6.82;3.60;;;8.50;96.20;;;;;;10095218;28;20033;-70
2021/11/20 04:37:54;;;;;;;8.13;4.32;;;8.50;96.10;;;;;;10096088;28;20642;-69
2021/11/20 04:42:46;;;;;;;6.80;3.78;;;8.40;96.10;;;;;;10093100;28;20398;-67
2021/11/20 04:47:37;;;;;;;9.02;4.10;;;8.30;96.10;;;;;;10092765;28;20029;-69
2021/11/20 04:52:28;;;;;;;6.28;3.20;;;8.30;96.00;;;;;;10094951;28;20110;-69
2021/11/20 04:57:19;;;;;;;4.53;2.90;;;8.40;96.00;;;;;;10093644;28;20049;-68
2021/11/20 05:02:10;;;;;;;4.63;3.15;;;8.40;96.00;;;;;;10077692;28;20029;-68
2021/11/20 05:07:01;;;;;;;4.35;2.78;;;8.30;95.90;;;;;;10093604;28;20099;-69
2021/11/20 05:11:52;;;;;;;4.97;3.38;;;8.30;95.80;;;;;;10092635;28;20139;-68
2021/11/20 05:16:42;;;;;;;5.13;3.10;;;8.40;95.90;;;;;;10083765;28;20553;-67
2021/11/20 05:21:33;;;;;;;5.63;3.60;;;8.40;95.70;;;;;;10093203;28;20021;-68
2021/11/20 05:26:24;;;;;;;3.78;2.63;;;8.40;95.90;;;;;;10092542;28;20618;-67
2021/11/20 05:31:15;;;;;;;4.65;2.58;;;8.40;95.80;;;;;;10095979;28;20047;-69
2021/11/20 05:36:06;;;;;;;4.90;3.10;;;8.40;95.80;;;;;;10090277;28;20029;-70
2021/11/20 05:40:57;;;;;;;6.07;3.00;;;8.40;95.70;;;;;;10091695;28;20028;-69
2021/11/20 05:45:58;;;;;;;4.95;3.00;;;8.30;95.60;;;;;;10091134;28;20029;-69
2021/11/20 05:50:50;;;;;;;7.55;3.28;;;8.30;95.60;;;;;;10091320;28;20398;-69
2021/11/20 05:55:42;;;;;;;6.13;3.03;;;8.40;95.50;;;;;;10091831;28;20302;-69
2021/11/20 06:00:35;;;;;;;5.43;3.15;;;8.40;95.50;;;;;;10090760;28;20029;-68
2021/11/20 06:05:28;;;;;;;6.10;2.88;;;8.30;95.50;;;;;;10090978;28;20467;-68
2021/11/20 06:10:19;;;;;;;6.22;3.17;;;8.20;95.50;;;;;;10090338;28;20027;-68
2021/11/20 06:15:11;;;;;;;4.47;2.45;;;8.20;95.60;;;;;;10092334;28;20047;-67
2021/11/20 06:20:04;;;;;;;3.22;2.13;;;8.20;95.60;;;;;;10090580;28;20025;-68
2021/11/20 06:24:55;;;;;;;4.03;2.78;;;8.10;95.50;;;;;;10086417;28;21414;-68
2021/11/20 06:29:46;;;;;;;5.28;3.13;;;8.10;95.30;;;;;;10094328;28;20037;-67
2021/11/20 06:34:37;;;;;;;4.57;3.00;;;8.20;95.40;;;;;;10091216;28;20487;-67
2021/11/20 06:39:29;;;;;;;5.88;3.00;;;8.30;95.30;;;;;;10090063;28;20089;-69
2021/11/20 06:44:20;;;;;;;8.63;3.55;;;8.20;95.30;;;;;;10088181;28;20032;-67
2021/11/20 06:49:12;;;;;;;7.47;3.05;;;8.30;95.20;;;;;;10081236;28;20518;-68
2021/11/20 06:54:03;;;;;;;3.95;2.53;;;8.20;95.30;;;;;;10085130;28;20080;-68
2021/11/20 06:59:15;;;;;;;5.25;3.35;;;8.20;95.30;;;;;;10088096;28;20056;-67
2021/11/20 07:04:11;;;;;;;4.18;2.65;;;8.30;95.20;;;;;;10088870;28;20029;-68
2021/11/20 07:09:02;;;;;;;6.63;3.47;;;8.20;95.10;;;;;;10088532;28;20040;-68
2021/11/20 07:13:55;;;;;;;3.83;2.80;;;8.20;95.30;;;;;;10091064;28;20569;-68
2021/11/20 07:18:45;;;;;;;4.90;2.85;;;8.10;95.30;;;;;;10090111;28;20021;-69
2021/11/20 07:23:37;;;;;;;4.30;3.10;;;8.20;95.20;;;;;;10089574;28;20047;-69
2021/11/20 07:28:28;;;;;;;4.03;2.55;;;8.30;95.20;;;;;;10075380;28;20048;-69
2021/11/20 07:33:19;;;;;;;5.88;3.10;;;8.30;95.20;;;;;;10089319;28;20530;-69
2021/11/20 07:38:12;;;;;;;4.72;2.95;;;8.40;95.10;;;;;;10091731;28;20561;-69
2021/11/20 07:43:03;;;;;;;3.70;2.67;;;8.50;95.10;;;;;;10095588;28;20033;-69
2021/11/20 07:47:54;;;;;;;4.28;2.75;;;8.50;95.00;;;;;;10093150;28;20086;-67
2021/11/20 07:52:45;;;;;;;3.88;2.50;;;8.50;95.00;;;;;;10088336;28;20048;-68
2021/11/20 07:57:36;;;;;;;3.08;2.35;;;8.50;95.10;;;;;;10094631;28;20048;-68
2021/11/20 08:02:26;;;;;;;4.03;2.42;;;8.60;95.10;;;;;;10091832;28;20025;-67
2021/11/20 08:07:17;;;;;;;3.08;2.38;;;8.70;95.10;;;;;;10090100;28;20041;-67
2021/11/20 08:12:08;;;;;;;3.22;2.25;;;8.60;95.00;;;;;;10086109;28;20052;-67
2021/11/20 08:16:59;;;;;;;3.13;2.05;;;8.60;95.10;;;;;;10088060;28;20021;-68
2021/11/20 08:21:50;;;;;;;3.17;1.58;;;8.50;95.20;;;;;;10092195;28;20099;-68
2021/11/20 08:26:42;;;;;;;3.25;1.58;;;8.60;95.00;;;;;;10088525;28;20048;-69
2021/11/20 08:31:34;;;;;;;2.00;1.52;;;8.50;95.10;;;;;;10102384;28;20099;-69
2021/11/20 08:36:24;;;;;;;2.33;1.60;;;8.80;94.90;;;;;;10093528;28;20454;-68
2021/11/20 08:41:15;;;;;;;2.90;1.48;;;8.80;94.60;;;;;;10094277;28;20391;-72
2021/11/20 08:46:07;;;;;;;2.78;1.77;;;8.80;94.60;;;;;;10077076;28;20025;-68
2021/11/20 08:51:02;;;;;;;3.10;2.28;;;8.80;94.60;;;;;;10094228;28;20118;-68
2021/11/20 08:55:54;;;;;;;3.60;1.80;;;8.90;94.60;;;;;;10093654;28;20048;-67
2021/11/20 09:01:04;;;;;;;3.38;2.25;;;8.80;94.70;;;;;;10087136;28;20037;-68
2021/11/20 09:06:08;;;;;;;4.00;2.45;;;8.90;94.70;;;;;;10088050;28;20028;-70
2021/11/20 09:11:10;;;;;;;2.47;1.95;;;9.00;94.60;;;;;;10067044;28;20555;-68
2021/11/20 09:16:08;;;;;;;2.72;1.90;;;9.00;94.50;;;;;;10089796;28;20021;-66
2021/11/20 09:21:02;;;;;;;3.70;2.47;;;9.00;94.60;;;;;;10091760;28;20024;-68
2021/11/20 09:25:55;;;;;;;4.57;1.98;;;9.00;94.80;;;;;;10091070;28;20017;-67
2021/11/20 09:30:51;;;;;;;2.72;1.98;;;8.90;94.50;;;;;;10090426;28;20049;-66
2021/11/20 09:35:44;;;;;;;4.07;2.05;;;8.80;94.30;;;;;;10091529;28;20466;-69
2021/11/20 09:40:38;;;;;;;5.28;3.28;;;8.70;94.60;;;;;;10086430;28;20129;-68
2021/11/20 09:45:34;;;;;;;4.13;2.83;;;8.80;94.30;;;;;;10080414;28;20036;-67
2021/11/20 09:50:27;;;;;;;4.07;2.80;;;8.70;94.30;;;;;;10088002;28;20128;-64
2021/11/20 09:55:24;;;;;;;7.32;2.65;;;8.50;94.50;;;;;;10092726;28;20045;-66
2021/11/20 10:00:47;;;;;;;4.20;2.60;;;8.70;94.50;;;;;;10090539;28;20319;-69
2021/11/20 10:05:43;;;;;;;4.50;2.65;;;8.70;94.50;;;;;;10042062;28;20037;-71
2021/11/20 10:10:48;;;;;;;6.18;3.20;;;8.60;94.60;;;;;;10089230;28;20402;-72
2021/11/20 10:15:45;;;;;;;5.60;2.83;;;8.50;94.40;;;;;;10091037;28;20614;-71
2021/11/20 10:20:41;;;;;;;5.63;2.83;;;8.40;94.50;;;;;;10092403;28;20226;-72
2021/11/20 10:25:44;;;;;;;5.00;3.22;;;8.40;94.60;;;;;;10093785;28;20027;-73
2021/11/20 10:30:53;;;;;;;4.63;2.78;;;8.60;94.40;;;;;;10086917;28;20041;-71
2021/11/20 10:35:50;;;;;;;5.63;3.50;;;8.70;94.30;;;;;;10072323;28;20158;-73
2021/11/20 10:40:54;;;;;;;6.03;3.13;;;8.60;94.30;;;;;;10090822;28;20651;-71
2021/11/20 10:46:20;;;;;;;5.68;3.00;;;8.70;94.40;;;;;;10080764;28;20044;-72
2021/11/20 10:51:33;;;;;;;6.20;3.17;;;8.70;94.40;;;;;;10075700;28;20452;-71
2021/11/20 10:56:27;;;;;;;4.97;3.10;;;8.80;94.30;;;;;;10084029;28;20067;-71
2021/11/20 11:01:55;;;;;;;6.05;3.42;;;8.80;94.40;;;;;;10070214;28;20111;-74
2021/11/20 11:07:06;;;;;;;5.78;3.50;;;8.80;94.30;;;;;;10085027;28;22022;-64
2021/11/20 11:12:41;;;;;;;5.88;3.70;;;8.70;94.30;;;;;;10087339;28;20036;-65
2021/11/20 11:17:46;;;;;;;6.03;3.58;;;8.70;94.30;;;;;;10060706;28;20057;-63
2021/11/20 11:22:43;;;;;;;5.93;3.13;;;8.60;94.50;;;;;;10083592;28;20029;-64
2021/11/20 11:27:50;;;;;;;6.80;3.83;;;8.70;94.60;;;;;;10071643;28;20017;-64
2021/11/20 11:32:44;;;;;;;6.97;3.78;;;8.90;94.40;;;;;;10087782;28;20075;-64
2021/11/20 11:37:54;;;;;;;5.80;3.13;;;8.90;94.30;;;;;;10088126;28;20044;-64
2021/11/20 11:42:48;;;;;;;6.18;3.42;;;8.80;94.40;;;;;;10083482;28;20037;-67
2021/11/20 11:48:11;;;;;;;6.57;3.45;;;8.80;94.40;;;;;;10083392;28;20025;-65
2021/11/20 11:53:23;;;;;;;7.32;3.58;;;8.80;94.30;;;;;;10084706;28;20514;-65
2021/11/20 11:58:20;;;;;;;4.85;2.92;;;8.80;94.30;;;;;;10051667;28;20037;-66
2021/11/20 12:04:04;;;;;;;4.95;2.78;;;8.70;94.50;;;;;;10054572;28;20021;-66
2021/11/20 12:09:23;;;;;;;5.70;3.85;;;8.80;94.20;;;;;;10037792;28;20128;-65
2021/11/20 12:14:14;;;;;;;7.88;4.43;;;8.70;94.50;;;;;;10046897;28;20346;-67
2021/11/20 12:19:12;;;;;;;8.07;3.83;;;8.60;94.40;;;;;;10051948;28;20022;-68
2021/11/20 12:24:39;;;;;;;5.47;3.72;;;8.40;94.60;;;;;;10047504;28;20029;-67
2021/11/20 12:29:39;;;;;;;7.93;4.28;;;8.30;94.40;;;;;;10060298;28;20383;-67
2021/11/20 12:35:10;;;;;;;6.43;3.92;;;8.20;94.60;;;;;;10066252;28;20067;-69
2021/11/20 12:40:23;;;;;;;6.13;3.35;;;8.40;94.50;;;;;;10061783;28;20040;-70
2021/11/20 12:45:59;;;;;;;6.13;4.32;;;8.60;94.30;;;;;;10057561;28;20022;-70
2021/11/20 12:51:08;;;;;;;4.88;2.95;;;8.60;94.30;;;;;;10046982;28;20045;-66
2021/11/20 12:56:17;;;;;;;7.32;4.03;;;8.40;94.30;;;;;;10076436;28;20052;-68
2021/11/20 13:01:13;;;;;;;5.68;3.55;;;8.40;94.30;;;;;;10095790;28;20079;-69
2021/11/20 13:06:26;;;;;;;5.38;3.45;;;8.30;94.50;;;;;;10078919;28;20047;-69
2021/11/20 13:11:29;;;;;;;5.70;4.47;;;8.30;94.50;;;;;;10094535;28;20032;-71
2021/11/20 13:17:12;;;;;;;6.78;4.28;;;8.30;94.50;;;;;;10093557;28;20135;-70
2021/11/20 13:22:14;;;;;;;8.73;4.80;;;8.20;94.60;;;;;;10067344;28;20338;-71
2021/11/20 13:27:11;;;;;;;8.68;4.45;;;8.20;94.40;;;;;;10086282;28;20058;-72
2021/11/20 13:32:05;;;;;;;7.03;4.18;;;8.30;94.50;;;;;;10088950;28;20040;-70
2021/11/20 13:36:56;;;;;;;8.93;4.38;;;8.40;94.50;;;;;;10090403;28;20319;-70
2021/11/20 13:41:55;;;;;;;6.55;3.85;;;8.50;94.50;;;;;;10088437;28;20111;-69
2021/11/20 13:46:53;;;;;;;9.32;4.47;;;8.60;94.30;;;;;;10090190;28;20166;-70
2021/11/20 13:51:45;;;;;;;6.25;3.53;;;8.60;94.30;;;;;;10082743;28;20179;-69
2021/11/20 13:56:38;;;;;;;7.28;4.25;;;8.40;94.30;;;;;;10087761;28;20033;-70
2021/11/20 14:01:31;;;;;;;5.55;3.47;;;8.40;94.40;;;;;;10090568;28;20082;-69
2021/11/20 14:06:22;;;;;;;8.23;3.85;;;8.40;94.40;;;;;;10090555;28;20041;-70
2021/11/20 14:11:18;;;;;;;8.32;4.40;;;8.00;94.50;;;;;;10067901;28;20048;-71
2021/11/20 14:16:09;;;;;;;6.13;4.07;;;8.10;94.60;;;;;;10090748;28;20025;-71
2021/11/20 14:21:03;;;;;;;5.80;3.42;;;7.90;94.70;;;;;;10092233;28;20433;-69
2021/11/20 14:26:02;;;;;;;7.22;3.17;;;7.90;94.70;;;;;;10102691;28;20481;-70
2021/11/20 14:30:53;;;;;;;4.90;3.08;;;7.90;94.60;;;;;;10074965;28;20044;-70
2021/11/20 14:36:04;;;;;;;7.75;4.03;;;8.00;94.60;;;;;;10091249;28;20029;-69
2021/11/20 14:40:58;;;;;;;8.45;4.82;;;8.00;94.40;;;;;;10085151;28;20033;-69
2021/11/20 14:45:50;;;;;;;9.05;5.55;;;8.00;94.60;;;;;;10090452;28;20036;-69
2021/11/20 14:50:48;;;;;;;8.23;4.68;;;8.10;94.40;;;;;;10090820;28;20045;-69
2021/11/20 14:55:52;;;;;;;10.25;4.93;;;8.00;94.60;;;;;;10089621;28;20095;-69
2021/11/20 15:00:47;;;;;;;7.38;4.25;;;7.90;94.70;;;;;;10090945;28;20025;-69
2021/11/20 15:05:38;;;;;;;8.00;4.68;;;8.00;94.60;;;;;;10090845;28;20033;-70
2021/11/20 15:10:29;;;;;;;7.65;5.00;;;8.00;94.60;;;;;;10091149;28;20399;-69
2021/11/20 15:15:20;;;;;;;8.05;4.72;;;8.20;94.60;;;;;;10088570;28;20467;-68
2021/11/20 15:20:13;;;;;;;7.10;4.00;;;8.10;94.70;;;;;;10088426;28;20130;-69
2021/11/20 15:25:06;;;;;;;10.40;4.82;;;8.00;94.60;;;;;;10091343;28;20025;-69
2021/11/20 15:29:57;;;;;;;8.93;5.95;;;8.00;94.60;;;;;;10087958;28;20032;-68
2021/11/20 15:34:47;;;;;;;10.90;6.45;;;8.00;94.60;;;;;;10093036;28;20024;-75
2021/11/20 15:39:38;;;;;;;10.52;5.15;;;8.00;94.60;;;;;;10095791;28;20029;-74
2021/11/20 15:44:29;;;;;;;13.45;5.45;;;7.90;94.60;;;;;;10093540;28;20036;-76
2021/11/20 15:49:19;;;;;;;10.48;4.90;;;7.60;94.80;;;;;;10095714;28;20028;-73
2021/11/20 15:54:10;;;;;;;10.32;4.53;;;7.50;94.90;;;;;;10086629;28;20064;-75
2021/11/20 15:59:01;;;;;;;10.45;5.50;;;7.60;94.90;;;;;;10095541;28;20173;-73
2021/11/20 16:03:52;;;;;;;11.25;5.28;;;7.80;94.80;;;;;;10094593;28;20035;-75
2021/11/20 16:08:43;;;;;;;12.23;5.53;;;7.80;94.70;;;;;;10094312;28;20040;-73
2021/11/20 16:13:35;;;;;;;9.88;5.60;;;8.00;94.70;;;;;;10079091;28;20028;-74
2021/11/20 16:18:26;;;;;;;14.10;6.38;;;7.80;94.70;;;;;;10073202;28;20025;-73
2021/11/20 16:23:17;;;;;;;10.68;5.55;;;7.90;94.70;;;;;;10096649;28;20021;-75
2021/11/20 16:28:08;;;;;;;11.43;5.13;;;7.80;94.80;;;;;;10097916;28;20482;-75
2021/11/20 16:32:58;;;;;;;10.65;5.18;;;7.60;94.90;;;;;;10098185;28;20119;-73
2021/11/20 16:37:50;;;;;;;10.63;5.30;;;7.60;95.10;;;;;;10097476;28;20451;-73
2021/11/20 16:42:41;;;;;;;9.70;5.60;;;7.70;95.00;;;;;;10095601;28;20048;-72
2021/11/20 16:47:34;;;;;;;9.57;5.32;;;7.60;95.00;;;;;;10096518;28;20028;-72
2021/11/20 16:52:32;;;;;;;12.13;6.22;;;7.60;95.00;;;;;;10096323;28;20049;-74
2021/11/20 16:57:23;;;;;;;12.55;6.60;;;7.70;95.00;;;;;;10094361;28;20513;-74
2021/11/20 17:02:13;;;;;;;15.18;6.50;;;7.70;94.90;;;;;;10098667;28;20029;-73
2021/11/20 17:07:04;;;;;;;10.45;5.10;;;7.60;95.10;;;;;;10100845;28;20021;-72
2021/11/20 17:11:55;;;;;;;14.02;5.97;;;7.40;95.20;;;;;;10099921;28;20069;-71
2021/11/20 17:16:46;;;;;;;14.50;5.75;;;7.40;95.30;;;;;;10100695;28;20040;-71
2021/11/20 17:21:37;;;;;;;13.32;6.78;;;7.50;95.20;;;;;;10099641;28;20082;-73
2021/11/20 17:26:28;;;;;;;14.80;6.00;;;7.40;95.30;;;;;;10102787;28;20417;-73
2021/11/20 17:31:20;;;;;;;18.55;6.82;;;7.30;95.20;;;;;;10104322;28;20121;-74
2021/11/20 17:36:11;;;;;;;12.73;5.95;;;7.30;95.30;;;;;;10098924;28;20518;-73
2021/11/20 17:41:05;;;;;;;12.20;5.13;;;7.40;95.30;;;;;;10097488;28;20024;-72
2021/11/20 17:45:56;;;;;;;16.02;6.57;;;7.20;95.50;;;;;;10076728;28;20032;-73
2021/11/20 17:50:47;;;;;;;12.93;6.78;;;7.10;95.50;;;;;;10075468;28;20478;-73
2021/11/20 17:55:38;;;;;;;13.55;6.25;;;7.00;95.60;;;;;;10091404;28;20125;-73
2021/11/20 18:00:31;;;;;;;12.52;5.70;;;7.00;95.60;;;;;;10073677;28;20033;-72
2021/11/20 18:05:23;;;;;;;10.43;5.40;;;6.80;95.60;;;;;;10091250;28;20032;-73
2021/11/20 18:10:16;;;;;;;12.15;6.22;;;6.80;95.80;;;;;;10093871;28;20037;-72
2021/11/20 18:15:08;;;;;;;15.07;6.70;;;6.90;95.70;;;;;;10093920;28;20033;-71
2021/11/20 18:19:59;;;;;;;13.77;6.20;;;6.80;95.60;;;;;;10074933;28;20040;-73
2021/11/20 18:24:50;;;;;;;13.98;7.07;;;6.90;95.50;;;;;;10092972;28;20045;-73
2021/11/20 18:29:41;;;;;;;15.07;5.22;;;6.80;95.50;;;;;;10094459;28;20102;-72
2021/11/20 18:34:33;;;;;;;13.65;5.68;;;6.60;95.60;;;;;;10095091;28;20051;-72
2021/11/20 18:39:24;;;;;;;12.52;7.13;;;6.40;95.90;;;;;;10092443;28;20036;-73
2021/11/20 18:44:15;;;;;;;13.25;6.30;;;6.30;96.00;;;;;;10091909;28;20021;-72
2021/11/20 18:49:06;;;;;;;15.73;6.47;;;6.50;95.80;;;;;;10091190;28;20314;-72
2021/11/20 18:53:58;;;;;;;12.90;7.53;;;6.50;95.70;;;;;;10089585;28;20040;-73
2021/11/20 18:58:49;;;;;;;16.48;7.90;;;6.60;95.60;;;;;;10098511;28;20032;-71
2021/11/20 19:03:40;;;;;;;16.35;7.82;;;6.70;95.40;;;;;;10091282;28;20025;-72
2021/11/20 19:08:32;;;;;;;15.40;8.20;;;6.70;95.50;;;;;;10088236;28;20024;-73
2021/11/20 19:13:23;;;;;;;16.70;7.78;;;6.60;95.60;;;;;;10091340;28;20227;-73
2021/11/20 19:18:14;;;;;;;11.57;6.00;;;6.60;95.70;;;;;;10091405;28;20036;-72
2021/11/20 19:23:05;;;;;;;16.35;6.20;;;6.50;95.70;;;;;;10073272;28;20028;-72
2021/11/20 19:27:56;;;;;;;13.15;6.88;;;6.50;95.60;;;;;;10075138;28;20025;-72
2021/11/20 19:32:47;;;;;;;10.90;5.30;;;6.50;95.60;;;;;;10088227;28;20052;-73
2021/11/20 19:37:39;;;;;;;13.15;6.70;;;6.50;95.70;;;;;;10084095;28;20076;-72
2021/11/20 19:42:29;;;;;;;15.38;5.85;;;6.40;95.80;;;;;;10090145;28;20036;-71
2021/11/20 19:47:20;;;;;;;14.30;6.50;;;6.40;95.70;;;;;;10091174;28;20032;-71
2021/11/20 19:52:11;;;;;;;12.95;6.05;;;6.40;95.80;;;;;;10091880;28;20465;-72
2021/11/20 19:57:03;;;;;;;14.43;6.53;;;6.40;95.70;;;;;;10068713;28;20034;-71
2021/11/20 20:01:54;;;;;;;13.02;6.35;;;6.30;95.80;;;;;;10090303;28;20056;-70
2021/11/20 20:06:45;;;;;;;13.00;5.53;;;6.40;95.80;;;;;;10093790;28;20120;-73
2021/11/20 20:11:40;;;;;;;13.90;6.72;;;6.50;95.60;;;;;;10094195;28;20037;-72
2021/11/20 20:16:31;;;;;;;14.85;6.35;;;6.50;95.70;;;;;;10090633;28;20091;-72
2021/11/20 20:21:23;;;;;;;16.25;7.90;;;6.50;95.60;;;;;;10093885;28;20029;-72
2021/11/20 20:26:14;;;;;;;14.18;6.22;;;6.50;95.70;;;;;;10095319;28;20025;-71
2021/11/20 20:31:06;;;;;;;13.25;6.43;;;6.50;95.70;;;;;;10094863;28;20076;-71
2021/11/20 20:35:56;;;;;;;15.75;6.70;;;6.60;95.70;;;;;;10096248;28;20082;-74
2021/11/20 20:40:48;;;;;;;15.60;7.70;;;6.60;95.70;;;;;;10096977;28;20037;-73
2021/11/20 20:45:40;;;;;;;14.00;7.80;;;6.60;95.80;;;;;;10096591;28;20066;-72
2021/11/20 20:50:30;;;;;;;13.63;6.95;;;6.50;95.80;;;;;;10095566;28;20052;-71
2021/11/20 20:55:22;;;;;;;9.40;6.22;;;6.50;95.80;;;;;;10096212;28;20304;-72
2021/11/20 21:00:16;;;;;;;14.45;6.32;;;6.50;95.70;;;;;;10096486;28;20079;-73
2021/11/20 21:05:10;;;;;;;12.77;6.10;;;6.50;95.80;;;;;;10096177;28;20136;-74
2021/11/20 21:10:06;;;;;;;15.70;6.68;;;6.50;95.70;;;;;;10096432;28;20029;-72
2021/11/20 21:14:56;;;;;;;9.20;5.57;;;6.40;95.80;;;;;;10096512;28;20140;-74
2021/11/20 21:24:56;;;;;;;10.05;4.78;;;6.50;95.50;;;;;;10094475;28;20120;-71
2021/11/20 21:29:49;;;;;;;8.52;5.22;;;6.40;95.80;;;;;;10080943;28;20173;-74
2021/11/20 21:34:41;;;;;;;9.45;4.75;;;6.30;95.80;;;;;;10097655;28;20052;-72
2021/11/20 21:39:32;;;;;;;11.77;6.40;;;6.30;95.90;;;;;;10098748;28;20387;-73
2021/11/20 21:44:23;;;;;;;13.15;6.55;;;6.50;95.70;;;;;;10081895;28;20056;-71
2021/11/20 21:49:15;;;;;;;10.10;5.50;;;6.40;95.60;;;;;;10095899;28;20032;-72
2021/11/20 21:54:06;;;;;;;10.20;4.90;;;6.50;95.50;;;;;;10093269;28;20041;-75
2021/11/20 21:58:57;;;;;;;7.00;4.43;;;6.50;95.60;;;;;;10102476;28;20024;-71
2021/11/20 22:03:49;;;;;;;10.63;5.15;;;6.30;95.70;;;;;;10096931;28;20543;-73
2021/11/20 22:08:41;;;;;;;10.73;5.15;;;6.40;95.60;;;;;;10075075;28;20025;-73
2021/11/20 22:13:32;;;;;;;13.77;7.40;;;6.50;95.60;;;;;;10091863;28;20048;-72
2021/11/20 22:18:25;;;;;;;9.05;5.40;;;6.60;95.50;;;;;;10092077;28;20020;-71
2021/11/20 22:23:16;;;;;;;11.60;7.03;;;6.60;95.40;;;;;;10091821;28;20021;-70
2021/11/20 22:28:09;;;;;;;14.43;6.65;;;6.70;95.40;;;;;;10091398;28;20140;-70
2021/11/20 22:33:00;;;;;;;13.20;5.78;;;6.50;95.60;;;;;;10089585;28;20192;-71
2021/11/20 22:37:51;;;;;;;10.02;5.10;;;6.60;95.60;;;;;;10092440;28;20112;-72
2021/11/20 22:42:42;;;;;;;12.70;5.00;;;6.60;95.40;;;;;;10084819;28;20044;-68
2021/11/20 22:47:35;;;;;;;9.55;5.40;;;6.60;95.50;;;;;;10090619;28;20232;-68
2021/11/20 22:52:26;;;;;;;8.82;5.15;;;6.50;95.40;;;;;;10084445;28;20072;-70
2021/11/20 22:57:17;;;;;;;9.68;5.97;;;6.50;95.40;;;;;;10089811;28;20068;-69
2021/11/20 23:02:08;;;;;;;10.10;4.55;;;6.50;95.40;;;;;;10070150;28;20021;-69
2021/11/20 23:06:59;;;;;;;11.18;6.03;;;6.40;95.50;;;;;;10089653;28;20017;-69
2021/11/20 23:11:50;;;;;;;10.13;5.43;;;6.50;95.40;;;;;;10072447;28;20068;-68
2021/11/20 23:16:40;;;;;;;10.32;5.25;;;6.40;95.50;;;;;;10087703;28;20021;-70
2021/11/20 23:21:32;;;;;;;14.88;6.97;;;6.30;95.50;;;;;;10073343;28;20025;-68
2021/11/20 23:26:25;;;;;;;10.00;5.28;;;6.40;95.40;;;;;;10090633;28;20205;-69
2021/11/20 23:31:15;;;;;;;7.85;5.00;;;6.30;95.40;;;;;;10083866;28;20502;-69
2021/11/20 23:36:07;;;;;;;11.48;5.95;;;6.30;95.40;;;;;;10088142;28;20025;-69
2021/11/20 23:40:58;;;;;;;15.38;6.18;;;6.20;95.40;;;;;;10088364;28;20029;-69
2021/11/20 23:45:50;;;;;;;9.98;5.10;;;6.20;95.30;;;;;;10089687;28;20029;-70
2021/11/20 23:50:41;;;;;;;10.63;5.25;;;6.20;95.70;;;;;;10087343;28;20033;-69
2021/11/20 23:55:31;;;;;;;11.93;5.93;;;6.30;95.30;;;;;;10077392;28;20114;-70
